createdAt,value
2023-03-30T00:00:54.915Z,932.3
2023-03-30T00:15:55.113Z,932.2
2023-03-30T00:30:56.451Z,932
2023-03-30T00:45:57.161Z,931.8
2023-03-30T01:00:56.625Z,931.7
2023-03-30T01:15:58.050Z,931.5
2023-03-30T01:30:58.905Z,931.3
2023-03-30T01:46:08.227Z,931.3
2023-03-30T02:00:59.768Z,931
2023-03-30T02:16:00.778Z,930.7
2023-03-30T02:31:01.430Z,930.8
2023-03-30T02:46:02.031Z,930.3
2023-03-30T03:01:06.041Z,930.3
2023-03-30T03:16:04.792Z,930.7
2023-03-30T03:31:04.989Z,931
2023-03-30T03:46:04.763Z,931.3
2023-03-30T04:01:05.743Z,931.6
2023-03-30T04:16:04.998Z,931.7
2023-03-30T04:31:07.443Z,931.5
2023-03-30T04:46:06.424Z,931.2
2023-03-30T05:01:15.720Z,930.7
2023-03-30T05:03:54.798Z,930.3
2023-03-30T05:18:55.038Z,929.9
2023-03-30T05:33:56.621Z,929.6
2023-03-30T05:48:56.706Z,929.2
2023-03-30T06:03:57.703Z,929.1
2023-03-30T06:18:57.558Z,929.1
2023-03-30T06:33:58.116Z,929
2023-03-30T06:48:58.724Z,928.9
2023-03-30T07:04:00.268Z,929
2023-03-30T07:18:59.437Z,929
2023-03-30T07:34:00.574Z,929.2
2023-03-30T07:49:00.594Z,929.2
2023-03-30T08:04:03.467Z,929.3
2023-03-30T08:19:02.080Z,929.6
2023-03-30T08:34:03.844Z,929.6
2023-03-30T08:49:02.866Z,929.5
2023-03-30T09:04:03.014Z,929.6
2023-03-30T09:19:04.957Z,929.6
2023-03-30T09:34:14.488Z,929.6
2023-03-30T09:49:04.076Z,929.7
2023-03-30T10:04:06.400Z,929.9
2023-03-30T10:19:05.461Z,929.8
2023-03-30T10:34:06.684Z,930
2023-03-30T10:49:07.434Z,930.5
2023-03-30T11:04:27.133Z,931.2
2023-03-30T11:19:11.423Z,933.2
2023-03-30T11:34:11.663Z,935.2
2023-03-30T11:49:11.766Z,936.4
2023-03-30T12:04:18.131Z,937.2
2023-03-30T12:19:13.440Z,937.3
2023-03-30T12:34:13.771Z,938.1
2023-03-30T12:49:13.185Z,938
2023-03-30T13:04:13.808Z,937.7
2023-03-30T13:19:14.691Z,937.5
2023-03-30T13:34:15.201Z,936.5
2023-03-30T13:49:16.164Z,937.1
2023-03-30T14:04:16.582Z,935.6
2023-03-30T14:19:16.414Z,936.2
2023-03-30T14:34:17.388Z,936.2
2023-03-30T14:49:17.569Z,936.5
2023-03-30T15:04:18.310Z,933.6
2023-03-30T15:19:21.619Z,934.1
2023-03-30T15:34:19.097Z,934.6
2023-03-30T15:49:19.748Z,932.3
2023-03-30T16:04:19.256Z,931.9
2023-03-30T16:19:20.711Z,931.6
2023-03-30T16:34:20.244Z,931.2
2023-03-30T16:49:20.568Z,930.9
2023-03-30T17:04:22.446Z,930.7
2023-03-30T17:19:27.234Z,930.7
2023-03-30T17:34:22.442Z,930.7
2023-03-30T17:49:23.996Z,930.8
2023-03-30T18:04:24.297Z,930.7
2023-03-30T18:19:25.001Z,930.7
2023-03-30T18:34:25.730Z,930.6
2023-03-30T18:49:26.253Z,930.5
2023-03-30T19:04:26.294Z,930.6
2023-03-30T19:19:28.928Z,930.6
2023-03-30T19:34:27.773Z,931.1
2023-03-30T19:49:29.482Z,931.2
2023-03-30T20:04:29.183Z,931.1
2023-03-30T20:19:30.457Z,931
2023-03-30T20:34:29.634Z,930.9
2023-03-30T20:49:30.850Z,930.6
2023-03-30T21:04:31.442Z,930.5
2023-03-30T21:19:32.144Z,930.4
2023-03-30T21:34:32.518Z,930.3
2023-03-30T21:49:37.021Z,930
2023-03-30T22:00:38.412Z,929.9
2023-03-30T22:15:37.845Z,930.1
2023-03-30T22:30:39.624Z,930.1
2023-03-30T22:45:39.738Z,930.4
2023-03-30T23:00:39.768Z,930
2023-03-30T23:15:40.049Z,930
2023-03-30T23:30:41.406Z,929.9
2023-03-30T23:45:41.852Z,929.2
